createdAt,value
2023-05-18T00:00:45.452Z,94.79
2023-05-18T00:03:13.146Z,94.76
2023-05-18T00:05:43.343Z,94.79
2023-05-18T00:08:11.421Z,95.84
2023-05-18T00:10:39.377Z,96.87
2023-05-18T00:13:09.090Z,97.43
2023-05-18T00:15:36.861Z,98.24
2023-05-18T00:18:04.786Z,98.54
2023-05-18T00:20:32.897Z,98.40
2023-05-18T00:23:01.069Z,98.26
2023-05-18T00:25:28.891Z,98.33
2023-05-18T00:27:56.793Z,98.08
2023-05-18T00:30:25.995Z,97.70
2023-05-18T00:32:53.406Z,98.08
2023-05-18T00:35:21.016Z,97.74
2023-05-18T00:37:49.234Z,97.70
2023-05-18T00:40:17.052Z,97.47
2023-05-18T00:42:44.634Z,97.61
2023-05-18T00:45:12.325Z,98.18
2023-05-18T00:47:40.264Z,99.24
2023-05-18T00:50:08.651Z,99.87
2023-05-18T00:52:36.594Z,99.96
2023-05-18T00:55:05.273Z,100.00
2023-05-18T00:57:34.067Z,100.00
2023-05-18T01:00:01.726Z,100.00
2023-05-18T01:02:30.827Z,100.00
2023-05-18T01:05:00.497Z,100.00
2023-05-18T01:07:28.707Z,100.00
2023-05-18T01:09:56.468Z,100.00
2023-05-18T01:12:35.905Z,100.00
2023-05-18T01:15:04.485Z,100.00
2023-05-18T01:17:50.911Z,100.00
2023-05-18T01:20:41.186Z,100.00
2023-05-18T01:23:14.369Z,100.00
2023-05-18T01:25:54.219Z,100.00
2023-05-18T01:28:27.767Z,100.00
2023-05-18T01:30:55.444Z,100.00
2023-05-18T01:33:24.744Z,100.00
2023-05-18T01:35:52.951Z,100.00
2023-05-18T01:38:26.769Z,100.00
2023-05-18T01:41:21.758Z,100.00
2023-05-18T01:44:00.398Z,100.00
2023-05-18T01:46:39.203Z,100.00
2023-05-18T01:49:14.581Z,100.00
2023-05-18T01:51:44.743Z,100.00
2023-05-18T01:54:12.425Z,100.00
2023-05-18T01:56:40.292Z,100.00
2023-05-18T01:59:08.281Z,100.00
2023-05-18T02:01:36.700Z,100.00
2023-05-18T02:04:09.806Z,100.00
2023-05-18T02:06:37.903Z,100.00
2023-05-18T02:09:06.089Z,100.00
2023-05-18T02:11:33.735Z,100.00
2023-05-18T02:14:01.868Z,100.00
2023-05-18T02:16:29.536Z,100.00
2023-05-18T02:18:58.404Z,100.00
2023-05-18T02:21:26.332Z,100.00
2023-05-18T02:23:53.882Z,100.00
2023-05-18T02:26:21.440Z,100.00
2023-05-18T02:28:53.344Z,100.00
2023-05-18T02:31:21.093Z,100.00
2023-05-18T02:33:48.627Z,100.00
2023-05-18T02:36:18.920Z,100.00
2023-05-18T02:38:46.709Z,100.00
2023-05-18T02:41:14.369Z,100.00
2023-05-18T02:43:42.135Z,100.00
2023-05-18T02:46:09.946Z,100.00
2023-05-18T02:48:38.793Z,100.00
2023-05-18T02:51:06.250Z,100.00
2023-05-18T02:53:34.125Z,100.00
2023-05-18T02:56:07.281Z,100.00
2023-05-18T02:58:44.288Z,100.00
2023-05-18T03:01:19.161Z,100.00
2023-05-18T03:03:49.777Z,100.00
2023-05-18T03:06:17.517Z,100.00
2023-05-18T03:08:45.378Z,100.00
2023-05-18T03:11:13.349Z,100.00
2023-05-18T03:13:41.288Z,100.00
2023-05-18T03:16:09.594Z,100.00
2023-05-18T03:18:37.182Z,100.00
2023-05-18T03:21:05.964Z,100.00
2023-05-18T03:23:33.652Z,100.00
2023-05-18T03:26:02.931Z,100.00
2023-05-18T03:28:31.598Z,100.00
2023-05-18T03:30:59.986Z,100.00
2023-05-18T03:33:28.653Z,100.00
2023-05-18T03:35:56.520Z,100.00
2023-05-18T03:38:25.102Z,100.00
2023-05-18T03:40:58.190Z,100.00
2023-05-18T03:43:27.420Z,100.00
2023-05-18T03:45:55.211Z,100.00
2023-05-18T03:48:23.020Z,100.00
2023-05-18T03:50:51.122Z,100.00
2023-05-18T03:53:19.492Z,100.00
2023-05-18T03:55:49.541Z,100.00
2023-05-18T03:58:17.148Z,100.00
2023-05-18T04:00:46.038Z,100.00
2023-05-18T04:03:14.998Z,100.00
2023-05-18T04:05:46.493Z,100.00
2023-05-18T04:08:14.920Z,100.00
2023-05-18T04:10:43.604Z,100.00
2023-05-18T04:13:11.934Z,100.00
2023-05-18T04:15:39.375Z,100.00
2023-05-18T04:18:08.593Z,100.00
2023-05-18T04:20:38.220Z,100.00
2023-05-18T04:23:05.947Z,100.00
2023-05-18T04:25:34.052Z,100.00
2023-05-18T04:28:01.793Z,100.00
2023-05-18T04:30:30.370Z,100.00
2023-05-18T04:33:01.017Z,100.00
2023-05-18T04:35:28.951Z,100.00
2023-05-18T04:37:56.726Z,100.00
2023-05-18T04:40:25.625Z,100.00
2023-05-18T04:42:53.502Z,100.00
2023-05-18T04:45:26.864Z,100.00
2023-05-18T04:47:56.990Z,100.00
2023-05-18T04:50:25.530Z,100.00
2023-05-18T04:52:54.151Z,100.00
2023-05-18T04:55:29.655Z,100.00
2023-05-18T04:58:05.387Z,100.00
2023-05-18T05:00:32.972Z,100.00
2023-05-18T05:03:00.474Z,100.00
2023-05-18T05:05:28.056Z,100.00
2023-05-18T05:07:56.516Z,100.00
2023-05-18T05:10:24.707Z,100.00
2023-05-18T05:12:52.293Z,100.00
2023-05-18T05:15:20.220Z,100.00
2023-05-18T05:17:49.999Z,100.00
2023-05-18T05:20:18.221Z,100.00
2023-05-18T05:22:45.955Z,100.00
2023-05-18T05:25:16.326Z,99.57
2023-05-18T05:27:43.658Z,100.00
2023-05-18T05:30:12.028Z,100.00
2023-05-18T05:32:40.540Z,100.00
2023-05-18T05:35:10.213Z,100.00
2023-05-18T05:37:37.993Z,100.00
2023-05-18T05:40:07.947Z,100.00
2023-05-18T05:42:39.752Z,100.00
2023-05-18T05:45:09.048Z,100.00
2023-05-18T05:47:44.937Z,100.00
2023-05-18T05:50:13.486Z,100.00
2023-05-18T05:52:41.181Z,100.00
2023-05-18T05:55:10.260Z,100.00
2023-05-18T05:57:42.782Z,100.00
2023-05-18T06:00:12.033Z,100.00
2023-05-18T06:02:53.064Z,100.00
2023-05-18T06:05:36.527Z,99.96
2023-05-18T06:08:07.261Z,99.26
2023-05-18T06:10:34.926Z,98.32
2023-05-18T06:13:02.584Z,98.79
2023-05-18T06:15:37.453Z,99.24
2023-05-18T06:18:05.146Z,98.94
2023-05-18T06:20:33.456Z,98.92
2023-05-18T06:23:01.526Z,99.21
2023-05-18T06:25:44.032Z,99.14
2023-05-18T06:28:24.390Z,98.75
2023-05-18T06:31:03.220Z,99.22
2023-05-18T06:33:39.807Z,98.98
2023-05-18T06:36:07.172Z,98.51
2023-05-18T06:38:34.292Z,97.72
2023-05-18T06:41:01.858Z,97.68
2023-05-18T06:43:29.001Z,96.95
2023-05-18T06:46:24.366Z,97.04
2023-05-18T06:48:55.965Z,94.75
2023-05-18T06:51:24.042Z,92.86
2023-05-18T06:53:52.110Z,92.81
2023-05-18T06:56:20.223Z,91.32
2023-05-18T06:58:48.049Z,90.29
2023-05-18T07:01:15.750Z,89.20
2023-05-18T07:03:44.286Z,89.02
2023-05-18T07:06:11.978Z,87.59
2023-05-18T07:08:39.629Z,86.59
2023-05-18T07:11:07.407Z,86.68
2023-05-18T07:13:36.268Z,85.98
2023-05-18T07:16:03.880Z,85.72
2023-05-18T07:18:31.490Z,84.19
2023-05-18T07:20:59.146Z,82.76
2023-05-18T07:23:26.703Z,80.88
2023-05-18T07:25:54.569Z,79.97
2023-05-18T07:28:22.646Z,79.05
2023-05-18T07:30:50.405Z,77.48
2023-05-18T07:33:18.133Z,76.95
2023-05-18T07:35:46.139Z,77.18
2023-05-18T07:38:14.004Z,76.76
2023-05-18T07:40:41.514Z,76.87
2023-05-18T07:43:09.431Z,77.01
2023-05-18T07:45:37.331Z,76.93
2023-05-18T07:48:05.081Z,76.53
2023-05-18T07:50:32.696Z,74.25
2023-05-18T07:53:00.225Z,73.06
2023-05-18T07:55:27.641Z,72.55
2023-05-18T07:57:55.428Z,71.09
2023-05-18T08:00:23.744Z,70.49
2023-05-18T08:02:51.861Z,70.30
2023-05-18T08:05:21.674Z,69.87
2023-05-18T08:07:49.758Z,69.39
2023-05-18T08:10:17.611Z,68.48
2023-05-18T08:12:45.612Z,67.15
2023-05-18T08:15:12.817Z,66.80
2023-05-18T08:17:40.463Z,66.69
2023-05-18T08:20:09.269Z,67.22
2023-05-18T08:22:36.827Z,65.90
2023-05-18T08:25:04.489Z,64.63
2023-05-18T08:27:32.149Z,64.13
2023-05-18T08:29:59.709Z,63.92
2023-05-18T08:32:27.163Z,63.51
2023-05-18T08:34:54.720Z,62.78
2023-05-18T08:37:22.593Z,62.54
2023-05-18T08:39:49.944Z,61.21
2023-05-18T08:42:24.514Z,60.42
2023-05-18T08:45:15.586Z,60.51
2023-05-18T08:47:44.288Z,60.60
2023-05-18T08:50:14.016Z,59.04
2023-05-18T08:52:48.189Z,58.79
2023-05-18T08:55:18.026Z,59.23
2023-05-18T08:57:47.504Z,57.76
2023-05-18T09:00:15.686Z,57.72
2023-05-18T09:02:43.492Z,59.73
2023-05-18T09:05:12.673Z,58.64
2023-05-18T09:07:40.398Z,58.10
2023-05-18T09:10:07.927Z,57.17
2023-05-18T09:12:35.781Z,58.11
2023-05-18T09:15:04.093Z,58.33
2023-05-18T09:17:31.674Z,57.76
2023-05-18T09:19:59.128Z,55.63
2023-05-18T09:22:26.987Z,54.95
2023-05-18T09:24:55.669Z,55.16
2023-05-18T09:27:23.227Z,53.43
2023-05-18T09:29:54.984Z,52.80
2023-05-18T09:32:23.214Z,52.92
2023-05-18T09:34:51.192Z,51.77
2023-05-18T09:37:19.646Z,51.62
2023-05-18T09:40:05.538Z,51.67
2023-05-18T09:42:40.018Z,50.61
2023-05-18T09:45:18.122Z,49.70
2023-05-18T09:47:46.613Z,49.65
2023-05-18T09:50:14.882Z,49.21
2023-05-18T09:52:46.462Z,49.37
2023-05-18T09:55:16.974Z,49.29
2023-05-18T09:57:49.374Z,49.04
2023-05-18T10:00:19.501Z,49.21
2023-05-18T10:02:49.515Z,47.96
2023-05-18T10:05:20.764Z,47.08
2023-05-18T10:07:49.009Z,47.29
2023-05-18T10:10:20.754Z,46.83
2023-05-18T10:12:50.621Z,46.56
2023-05-18T10:15:20.006Z,45.82
2023-05-18T10:17:48.236Z,45.74
2023-05-18T10:20:19.731Z,45.86
2023-05-18T10:22:48.256Z,45.60
2023-05-18T10:25:26.490Z,44.83
2023-05-18T10:27:58.503Z,44.50
2023-05-18T10:30:27.035Z,44.59
2023-05-18T10:32:55.900Z,44.07
2023-05-18T10:35:24.245Z,44.72
2023-05-18T10:37:51.869Z,43.55
2023-05-18T10:40:19.298Z,43.16
2023-05-18T10:42:46.991Z,42.73
2023-05-18T10:45:15.349Z,43.80
2023-05-18T10:47:44.251Z,43.59
2023-05-18T10:50:12.221Z,43.04
2023-05-18T10:52:39.776Z,43.29
2023-05-18T10:55:08.627Z,43.45
2023-05-18T10:57:41.345Z,42.09
2023-05-18T11:00:09.751Z,41.43
2023-05-18T11:02:40.347Z,40.79
2023-05-18T11:05:08.974Z,40.17
2023-05-18T11:07:37.319Z,39.73
2023-05-18T11:10:11.562Z,39.42
2023-05-18T11:12:39.086Z,39.89
2023-05-18T11:15:08.373Z,39.88
2023-05-18T11:17:35.858Z,39.57
2023-05-18T11:20:09.580Z,39.70
2023-05-18T11:22:43.161Z,40.39
2023-05-18T11:25:10.808Z,40.28
2023-05-18T11:27:38.779Z,40.33
2023-05-18T11:30:30.221Z,39.69
2023-05-18T11:33:26.314Z,38.91
2023-05-18T11:35:57.779Z,38.66
2023-05-18T11:39:07.915Z,37.64
2023-05-18T11:41:47.274Z,35.58
2023-05-18T11:44:16.637Z,35.61
2023-05-18T11:46:55.036Z,35.52
2023-05-18T11:49:25.228Z,34.29
2023-05-18T11:52:17.541Z,33.47
2023-05-18T11:54:47.081Z,33.11
2023-05-18T11:57:15.832Z,33.02
2023-05-18T11:59:47.237Z,32.70
2023-05-18T12:02:35.237Z,32.17
2023-05-18T12:05:06.671Z,31.33
2023-05-18T12:07:35.597Z,30.70
2023-05-18T12:10:05.384Z,30.15
2023-05-18T12:12:34.364Z,30.23
2023-05-18T12:15:06.432Z,30.31
2023-05-18T12:17:41.102Z,30.22
2023-05-18T12:20:10.261Z,30.21
2023-05-18T12:22:39.653Z,30.55
2023-05-18T12:25:08.040Z,31.38
2023-05-18T12:27:40.699Z,31.18
2023-05-18T12:30:12.752Z,30.84
2023-05-18T12:32:44.357Z,30.91
2023-05-18T12:35:11.786Z,31.01
2023-05-18T12:37:46.431Z,31.08
2023-05-18T12:40:15.195Z,31.69
2023-05-18T12:43:04.470Z,32.39
2023-05-18T12:45:33.339Z,33.30
2023-05-18T12:48:10.930Z,33.26
2023-05-18T12:50:48.299Z,33.14
2023-05-18T12:53:16.307Z,33.39
2023-05-18T12:55:44.724Z,33.50
2023-05-18T12:58:19.107Z,33.17
2023-05-18T13:00:48.540Z,33.00
2023-05-18T13:03:22.755Z,33.66
2023-05-18T13:06:06.764Z,34.04
2023-05-18T13:08:35.264Z,34.10
2023-05-18T13:11:12.576Z,34.42
2023-05-18T13:14:20.966Z,34.60
2023-05-18T13:16:51.419Z,34.96
2023-05-18T13:19:20.254Z,35.54
2023-05-18T13:21:56.045Z,35.47
2023-05-18T13:24:23.597Z,36.16
2023-05-18T13:26:51.558Z,36.63
2023-05-18T13:29:19.736Z,36.83
2023-05-18T13:31:47.419Z,36.75
2023-05-18T13:34:15.457Z,36.72
2023-05-18T13:36:43.326Z,37.01
2023-05-18T13:39:11.405Z,36.88
2023-05-18T13:41:39.368Z,37.20
2023-05-18T13:44:06.852Z,36.86
2023-05-18T13:46:38.299Z,36.43
2023-05-18T13:49:05.882Z,35.85
2023-05-18T13:51:33.340Z,35.63
2023-05-18T13:54:02.020Z,35.17
2023-05-18T13:56:29.745Z,35.47
2023-05-18T13:58:57.197Z,35.44
2023-05-18T14:01:25.438Z,34.80
2023-05-18T14:03:53.270Z,35.00
2023-05-18T14:06:21.826Z,35.07
2023-05-18T14:08:49.993Z,35.10
2023-05-18T14:11:17.653Z,35.53
2023-05-18T14:13:45.520Z,36.13
2023-05-18T14:16:13.868Z,36.30
2023-05-18T14:18:41.719Z,36.70
2023-05-18T14:21:10.240Z,37.03
2023-05-18T14:23:38.029Z,37.16
2023-05-18T14:26:05.802Z,37.01
2023-05-18T14:28:33.635Z,37.63
2023-05-18T14:31:01.339Z,37.62
2023-05-18T14:33:29.289Z,37.41
2023-05-18T14:35:58.154Z,37.82
2023-05-18T14:38:27.349Z,37.83
2023-05-18T14:40:54.922Z,37.43
2023-05-18T14:43:22.520Z,37.54
2023-05-18T14:46:00.174Z,36.77
2023-05-18T14:48:35.613Z,36.98
2023-05-18T14:51:03.283Z,36.34
2023-05-18T14:53:30.970Z,36.47
2023-05-18T14:55:58.393Z,36.96
2023-05-18T14:58:26.905Z,36.66
2023-05-18T15:00:54.457Z,36.90
2023-05-18T15:03:22.418Z,37.22
2023-05-18T15:05:50.776Z,37.58
2023-05-18T15:08:18.536Z,37.42
2023-05-18T15:10:46.714Z,37.65
2023-05-18T15:13:16.161Z,37.91
2023-05-18T15:15:44.324Z,38.18
2023-05-18T15:18:12.288Z,38.17
2023-05-18T15:20:42.589Z,38.71
2023-05-18T15:23:10.480Z,39.03
2023-05-18T15:25:38.620Z,39.29
2023-05-18T15:28:06.592Z,39.81
2023-05-18T15:30:34.268Z,40.80
2023-05-18T15:33:02.685Z,40.99
2023-05-18T15:35:30.400Z,41.36
2023-05-18T15:37:58.056Z,41.73
2023-05-18T15:40:25.821Z,41.35
2023-05-18T15:42:53.486Z,41.23
2023-05-18T15:45:21.251Z,41.42
2023-05-18T15:47:48.757Z,41.65
2023-05-18T15:50:16.362Z,41.78
2023-05-18T15:52:44.727Z,42.06
2023-05-18T15:55:12.615Z,42.23
2023-05-18T15:57:40.173Z,42.40
2023-05-18T16:00:09.972Z,42.47
2023-05-18T16:02:40.169Z,42.53
2023-05-18T16:05:08.701Z,42.50
2023-05-18T16:07:37.886Z,42.62
2023-05-18T16:10:07.376Z,42.51
2023-05-18T16:12:36.383Z,42.82
2023-05-18T16:15:04.249Z,42.90
2023-05-18T16:17:31.837Z,43.12
2023-05-18T16:20:01.217Z,43.18
2023-05-18T16:22:30.412Z,43.34
2023-05-18T16:24:59.136Z,44.04
2023-05-18T16:27:26.969Z,44.33
2023-05-18T16:29:54.958Z,44.30
2023-05-18T16:32:22.486Z,44.56
2023-05-18T16:34:50.047Z,44.44
2023-05-18T16:37:17.730Z,44.68
2023-05-18T16:39:45.675Z,44.56
2023-05-18T16:42:13.487Z,45.16
2023-05-18T16:44:41.100Z,45.41
2023-05-18T16:47:08.764Z,45.63
2023-05-18T16:49:36.267Z,45.80
2023-05-18T16:52:04.088Z,46.46
2023-05-18T16:54:31.854Z,46.57
2023-05-18T16:56:59.391Z,46.70
2023-05-18T16:59:27.067Z,46.72
2023-05-18T17:01:54.751Z,46.81
2023-05-18T17:04:22.748Z,46.98
2023-05-18T17:06:50.371Z,47.55
2023-05-18T17:09:20.801Z,47.66
2023-05-18T17:11:48.750Z,48.00
2023-05-18T17:14:16.205Z,48.37
2023-05-18T17:16:43.688Z,48.52
2023-05-18T17:19:11.449Z,49.05
2023-05-18T17:21:39.019Z,49.22
2023-05-18T17:24:07.040Z,49.52
2023-05-18T17:26:34.461Z,49.74
2023-05-18T17:29:02.073Z,49.75
2023-05-18T17:31:30.754Z,50.08
2023-05-18T17:33:58.430Z,50.34
2023-05-18T17:36:26.314Z,50.51
2023-05-18T17:38:53.692Z,50.64
2023-05-18T17:41:22.570Z,50.82
2023-05-18T17:43:50.094Z,50.82
2023-05-18T17:46:17.858Z,50.94
2023-05-18T17:48:45.618Z,51.06
2023-05-18T17:51:13.732Z,50.98
2023-05-18T17:53:43.092Z,51.47
2023-05-18T17:56:11.375Z,51.89
2023-05-18T17:58:39.748Z,51.89
2023-05-18T18:01:07.939Z,52.10
2023-05-18T18:03:35.806Z,52.71
2023-05-18T18:06:03.462Z,53.14
2023-05-18T18:08:31.256Z,53.13
2023-05-18T18:10:59.178Z,53.51
2023-05-18T18:13:26.987Z,53.29
2023-05-18T18:15:54.838Z,53.32
2023-05-18T18:18:23.734Z,53.14
2023-05-18T18:20:52.183Z,53.27
2023-05-18T18:23:19.842Z,53.56
2023-05-18T18:25:47.606Z,53.68
2023-05-18T18:28:15.585Z,53.89
2023-05-18T18:30:44.771Z,54.32
2023-05-18T18:33:12.673Z,54.56
2023-05-18T18:35:41.322Z,55.31
2023-05-18T18:38:09.509Z,55.90
2023-05-18T18:40:37.105Z,56.64
2023-05-18T18:43:04.722Z,56.82
2023-05-18T18:45:32.515Z,56.66
2023-05-18T18:48:00.208Z,56.74
2023-05-18T18:50:27.698Z,56.68
2023-05-18T18:52:55.267Z,56.82
2023-05-18T18:55:26.148Z,57.01
2023-05-18T18:57:53.666Z,57.30
2023-05-18T19:00:21.754Z,57.40
2023-05-18T19:02:49.202Z,57.57
2023-05-18T19:05:21.906Z,58.06
2023-05-18T19:07:55.364Z,58.39
2023-05-18T19:10:24.357Z,58.96
2023-05-18T19:12:52.433Z,59.14
2023-05-18T19:15:22.694Z,59.24
2023-05-18T19:17:53.975Z,59.24
2023-05-18T19:20:21.933Z,59.45
2023-05-18T19:22:49.431Z,59.88
2023-05-18T19:25:17.292Z,59.90
2023-05-18T19:27:44.876Z,59.97
2023-05-18T19:30:16.817Z,60.41
2023-05-18T19:32:46.558Z,60.57
2023-05-18T19:35:14.599Z,60.78
2023-05-18T19:37:42.359Z,60.91
2023-05-18T19:40:09.724Z,61.15
2023-05-18T19:42:37.232Z,61.43
2023-05-18T19:45:05.550Z,61.85
2023-05-18T19:47:32.991Z,62.16
2023-05-18T19:50:00.978Z,62.34
2023-05-18T19:52:28.731Z,62.60
2023-05-18T19:54:56.712Z,62.70
2023-05-18T19:57:26.616Z,62.87
2023-05-18T19:59:54.385Z,63.18
2023-05-18T20:02:22.148Z,63.77
2023-05-18T20:04:50.824Z,64.21
2023-05-18T20:07:18.390Z,64.23
2023-05-18T20:09:46.459Z,64.26
2023-05-18T20:12:14.336Z,64.30
2023-05-18T20:14:43.685Z,64.22
2023-05-18T20:17:11.387Z,64.37
2023-05-18T20:19:39.384Z,64.43
2023-05-18T20:22:09.573Z,64.59
2023-05-18T20:24:37.348Z,64.75
2023-05-18T20:27:05.316Z,64.89
2023-05-18T20:29:33.381Z,64.83
2023-05-18T20:32:01.191Z,65.00
2023-05-18T20:34:28.606Z,65.05
2023-05-18T20:36:56.908Z,65.30
2023-05-18T20:39:26.483Z,65.61
2023-05-18T20:41:54.247Z,65.67
2023-05-18T20:44:23.854Z,65.68
2023-05-18T20:46:53.078Z,66.00
2023-05-18T20:49:27.196Z,66.39
2023-05-18T20:51:54.758Z,66.80
2023-05-18T20:54:22.287Z,67.13
2023-05-18T20:56:51.612Z,67.33
2023-05-18T20:59:19.553Z,67.41
2023-05-18T21:01:48.264Z,67.46
2023-05-18T21:04:17.266Z,67.88
2023-05-18T21:06:47.249Z,67.80
2023-05-18T21:09:17.916Z,67.78
2023-05-18T21:11:45.037Z,67.86
2023-05-18T21:14:32.658Z,67.97
2023-05-18T21:17:00.324Z,68.23
2023-05-18T21:19:28.009Z,68.50
2023-05-18T21:21:56.258Z,68.38
2023-05-18T21:24:23.921Z,68.57
2023-05-18T21:26:51.485Z,68.79
2023-05-18T21:29:19.045Z,68.99
2023-05-18T21:31:46.866Z,69.29
2023-05-18T21:34:15.596Z,69.39
2023-05-18T21:36:43.052Z,69.72
2023-05-18T21:39:11.430Z,69.72
2023-05-18T21:41:42.802Z,70.06
2023-05-18T21:44:10.568Z,70.41
2023-05-18T21:46:38.310Z,70.67
2023-05-18T21:49:06.933Z,70.78
2023-05-18T21:51:34.354Z,70.79
2023-05-18T21:54:02.368Z,70.95
2023-05-18T21:56:30.129Z,71.01
2023-05-18T21:58:57.330Z,71.13
2023-05-18T22:01:24.718Z,71.38
2023-05-18T22:03:52.409Z,71.56
2023-05-18T22:06:19.813Z,71.78
2023-05-18T22:08:47.775Z,71.92
2023-05-18T22:11:15.535Z,71.80
2023-05-18T22:13:43.196Z,71.82
2023-05-18T22:16:10.908Z,71.93
2023-05-18T22:18:38.675Z,71.84
2023-05-18T22:21:06.906Z,71.91
2023-05-18T22:23:33.971Z,71.93
2023-05-18T22:26:01.103Z,71.91
2023-05-18T22:28:28.247Z,71.98
2023-05-18T22:30:55.397Z,72.11
2023-05-18T22:33:22.821Z,72.04
2023-05-18T22:35:50.127Z,72.09
2023-05-18T22:38:18.005Z,71.88
2023-05-18T22:40:45.800Z,72.12
2023-05-18T22:43:13.492Z,72.33
2023-05-18T22:45:41.259Z,72.30
2023-05-18T22:48:08.504Z,72.70
2023-05-18T22:50:36.171Z,72.93
2023-05-18T22:53:04.519Z,73.00
2023-05-18T22:55:32.971Z,73.16
2023-05-18T22:58:00.612Z,73.63
2023-05-18T23:00:28.070Z,73.73
2023-05-18T23:02:55.631Z,74.11
2023-05-18T23:05:23.402Z,74.35
2023-05-18T23:07:52.469Z,74.51
2023-05-18T23:10:20.019Z,74.99
2023-05-18T23:12:48.703Z,75.30
2023-05-18T23:15:15.967Z,75.47
2023-05-18T23:17:43.565Z,75.73
2023-05-18T23:20:12.317Z,76.07
2023-05-18T23:22:39.720Z,76.30
2023-05-18T23:25:09.942Z,76.54
2023-05-18T23:27:36.927Z,76.81
2023-05-18T23:30:04.339Z,77.09
2023-05-18T23:32:32.440Z,77.32
2023-05-18T23:35:00.108Z,77.63
2023-05-18T23:37:27.504Z,77.83
2023-05-18T23:39:54.931Z,78.17
2023-05-18T23:42:22.185Z,78.52
2023-05-18T23:44:49.843Z,78.73
2023-05-18T23:47:17.613Z,78.97
2023-05-18T23:49:45.676Z,79.40
2023-05-18T23:52:14.057Z,79.38
2023-05-18T23:54:41.822Z,79.45
2023-05-18T23:57:10.111Z,79.66
2023-05-18T23:59:37.481Z,79.84
